Time;durP1;ratioP1;P1;durP2;ratioP2;P2;SDS_P1;SDS_P2;PMS_P1;PMS_P2;Temp;Humidity;BMP_temperature;BMP_pressure;BME280_temperature;BME280_humidity;BME280_pressure;Samples;Min_cycle;Max_cycle;Signal;HPM_P1;HPM_P2
2022/08/18 00:00:48;;;;;;;;;;;;;;;;;;2114776;28;20010;-44
2022/08/18 00:01:49;;;;;;;;;;;;;;;;;;2114431;28;19927;-45
2022/08/18 00:02:50;;;;;;;;;;;;;;;;;;2114740;28;19928;-44
2022/08/18 00:04:01;;;;;;;;;;;;;;;;;;2114653;28;19934;-44
2022/08/18 00:05:03;;;;;;;;;;;;;;;;;;2114493;28;19949;-44
2022/08/18 00:06:04;;;;;;;;;;;;;;;;;;2114414;28;19924;-44
2022/08/18 00:07:05;;;;;;;;;;;;;;;;;;2114768;28;19965;-44
2022/08/18 00:08:06;;;;;;;;;;;;;;;;;;2114593;28;19984;-46
2022/08/18 00:09:07;;;;;;;;;;;;;;;;;;2114533;28;19959;-44
2022/08/18 00:10:08;;;;;;;;;;;;;;;;;;2114434;28;20387;-45
2022/08/18 00:11:08;;;;;;;;;;;;;;;;;;2112926;28;20056;-46
2022/08/18 00:12:09;;;;;;;;;;;;;;;;;;2106079;28;20002;-44
2022/08/18 00:13:10;;;;;;;;;;;;;;;;;;2106159;28;20060;-44
2022/08/18 00:14:11;;;;;;;;;;;;;;;;;;2106099;28;19941;-44
2022/08/18 00:15:12;;;;;;;;;;;;;;;;;;2106041;28;19970;-45
2022/08/18 00:16:13;;;;;;;;;;;;;;;;;;2105965;28;19990;-45
2022/08/18 00:17:13;;;;;;;;;;;;;;;;;;2106021;28;19924;-45
2022/08/18 00:18:14;;;;;;;;;;;;;;;;;;2106217;28;19924;-44
2022/08/18 00:19:15;;;;;;;;;;;;;;;;;;2105963;28;19931;-44
2022/08/18 00:20:16;;;;;;;;;;;;;;;;;;2106225;28;19955;-44
2022/08/18 00:21:17;;;;;;;;;;;;;;;;;;2105968;28;19924;-44
2022/08/18 00:22:18;;;;;;;;;;;;;;;;;;2106035;28;20450;-46
2022/08/18 00:23:18;;;;;;;;;;;;;;;;;;2105969;28;20035;-44
2022/08/18 00:24:20;;;;;;;;;;;;;;;;;;2105970;28;19931;-44
2022/08/18 00:25:21;;;;;;;;;;;;;;;;;;2106211;28;19960;-44
2022/08/18 00:26:22;;;;;;;;;;;;;;;;;;2105970;28;20385;-45
2022/08/18 00:27:22;;;;;;;;;;;;;;;;;;2105886;28;20369;-45
2022/08/18 00:28:24;;;;;;;;;;;;;;;;;;2106009;28;19924;-44
2022/08/18 00:29:25;;;;;;;;;;;;;;;;;;2106071;28;20003;-44
2022/08/18 00:30:26;;;;;;;;;;;;;;;;;;2105835;28;20308;-43
2022/08/18 00:31:26;;;;;;;;;;;;;;;;;;2106139;28;20361;-44
2022/08/18 00:32:27;;;;;;;;;;;;;;;;;;2105879;28;19959;-44
2022/08/18 00:33:28;;;;;;;;;;;;;;;;;;2105972;28;20038;-44
2022/08/18 00:34:29;;;;;;;;;;;;;;;;;;2105942;28;19940;-45
2022/08/18 00:35:30;;;;;;;;;;;;;;;;;;2106119;28;20015;-44
2022/08/18 00:36:32;;;;;;;;;;;;;;;;;;2106037;28;19970;-45
2022/08/18 00:37:32;;;;;;;;;;;;;;;;;;2105862;28;20014;-44
2022/08/18 00:38:33;;;;;;;;;;;;;;;;;;2105954;28;19928;-44
2022/08/18 00:39:34;;;;;;;;;;;;;;;;;;2105944;28;20015;-43
2022/08/18 00:40:35;;;;;;;;;;;;;;;;;;2106565;28;19924;-43
2022/08/18 00:41:38;;;;;;;;;;;;;;;;;;2107358;28;20037;-44
2022/08/18 00:42:39;;;;;;;;;;;;;;;;;;2107382;28;20335;-44
2022/08/18 00:43:40;;;;;;;;;;;;;;;;;;2107314;28;20003;-44
2022/08/18 00:44:41;;;;;;;;;;;;;;;;;;2107405;28;19935;-45
2022/08/18 00:45:42;;;;;;;;;;;;;;;;;;2107408;28;20019;-44
2022/08/18 00:46:42;;;;;;;;;;;;;;;;;;2107249;28;19967;-44
2022/08/18 00:47:44;;;;;;;;;;;;;;;;;;2107386;28;19924;-44
2022/08/18 00:48:45;;;;;;;;;;;;;;;;;;2107277;28;20015;-44
2022/08/18 00:49:48;;;;;;;;;;;;;;;;;;2107416;28;19931;-44
2022/08/18 00:50:50;;;;;;;;;;;;;;;;;;2107454;28;19986;-44
2022/08/18 00:51:50;;;;;;;;;;;;;;;;;;2107201;28;20097;-44
2022/08/18 00:53:10;;;;;;;;;;;;;;;;;;2107310;28;19924;-44
2022/08/18 00:54:13;;;;;;;;;;;;;;;;;;2107303;28;20003;-44
2022/08/18 00:55:14;;;;;;;;;;;;;;;;;;2107299;28;19932;-44
2022/08/18 00:56:15;;;;;;;;;;;;;;;;;;2107256;28;20369;-44
2022/08/18 00:57:17;;;;;;;;;;;;;;;;;;2107089;28;19931;-44
2022/08/18 00:58:18;;;;;;;;;;;;;;;;;;2107176;28;19963;-44
2022/08/18 00:59:19;;;;;;;;;;;;;;;;;;2107315;28;20409;-44
2022/08/18 01:00:21;;;;;;;;;;;;;;;;;;2107101;28;20013;-44
2022/08/18 01:01:22;;;;;;;;;;;;;;;;;;2107292;28;20023;-44
2022/08/18 01:02:23;;;;;;;;;;;;;;;;;;2107152;28;19925;-46
2022/08/18 01:03:24;;;;;;;;;;;;;;;;;;2107174;28;19924;-44
2022/08/18 01:04:25;;;;;;;;;;;;;;;;;;2107178;28;19931;-44
2022/08/18 01:05:26;;;;;;;;;;;;;;;;;;2113431;28;20016;-44
2022/08/18 01:06:26;;;;;;;;;;;;;;;;;;2115552;28;20004;-45
2022/08/18 01:07:28;;;;;;;;;;;;;;;;;;2115605;28;20449;-45
2022/08/18 01:08:29;;;;;;;;;;;;;;;;;;2115728;28;20018;-44
2022/08/18 01:09:30;;;;;;;;;;;;;;;;;;2115669;28;19924;-44
2022/08/18 01:10:31;;;;;;;;;;;;;;;;;;2115589;28;20011;-44
2022/08/18 01:11:32;;;;;;;;;;;;;;;;;;2110592;28;20402;-45
2022/08/18 01:12:32;;;;;;;;;;;;;;;;;;2107200;28;19958;-44
2022/08/18 01:13:46;;;;;;;;;;;;;;;;;;2107194;28;19924;-44
2022/08/18 01:14:47;;;;;;;;;;;;;;;;;;2107247;28;19959;-44
2022/08/18 01:15:48;;;;;;;;;;;;;;;;;;2107313;28;19924;-43
2022/08/18 01:22:17;;;;;;;;;;;;;;;;;;2106257;28;20389;-43
2022/08/18 01:23:18;;;;;;;;;;;;;;;;;;2107197;28;20349;-43
2022/08/18 01:24:19;;;;;;;;;;;;;;;;;;2107039;28;19924;-43
2022/08/18 01:26:48;;;;;;;;;;;;;;;;;;2106949;28;20026;-44
2022/08/18 01:27:49;;;;;;;;;;;;;;;;;;2107118;28;20035;-43
2022/08/18 01:28:51;;;;;;;;;;;;;;;;;;2107088;28;19968;-44
2022/08/18 01:29:52;;;;;;;;;;;;;;;;;;2107020;28;20365;-45
2022/08/18 01:30:57;;;;;;;;;;;;;;;;;;2107019;28;20007;-43
2022/08/18 01:31:58;;;;;;;;;;;;;;;;;;2107035;28;20375;-44
2022/08/18 01:32:58;;;;;;;;;;;;;;;;;;2107168;28;19990;-44
2022/08/18 01:34:00;;;;;;;;;;;;;;;;;;2106931;28;20010;-44
2022/08/18 01:35:00;;;;;;;;;;;;;;;;;;2107118;28;20023;-45
2022/08/18 01:36:02;;;;;;;;;;;;;;;;;;2107034;28;20015;-44
2022/08/18 01:37:04;;;;;;;;;;;;;;;;;;2106942;28;19927;-44
2022/08/18 01:38:05;;;;;;;;;;;;;;;;;;2106828;28;20532;-44
2022/08/18 01:39:06;;;;;;;;;;;;;;;;;;2107103;28;19970;-43
2022/08/18 01:40:07;;;;;;;;;;;;;;;;;;2106901;28;19931;-43
2022/08/18 01:41:28;;;;;;;;;;;;;;;;;;2106817;28;19945;-45
2022/08/18 01:42:31;;;;;;;;;;;;;;;;;;2107303;28;19924;-45
2022/08/18 01:43:33;;;;;;;;;;;;;;;;;;2106980;28;20002;-45
2022/08/18 01:44:34;;;;;;;;;;;;;;;;;;2107098;28;19928;-44
2022/08/18 01:45:34;;;;;;;;;;;;;;;;;;2107158;28;19967;-45
2022/08/18 01:46:35;;;;;;;;;;;;;;;;;;2106917;28;20309;-44
2022/08/18 01:47:39;;;;;;;;;;;;;;;;;;2106904;28;20036;-44
2022/08/18 01:49:00;;;;;;;;;;;;;;;;;;2106952;28;19925;-44
2022/08/18 01:50:00;;;;;;;;;;;;;;;;;;2106921;28;20043;-45
2022/08/18 01:51:01;;;;;;;;;;;;;;;;;;2106742;28;20389;-44
2022/08/18 01:52:03;;;;;;;;;;;;;;;;;;2106660;28;20399;-46
2022/08/18 01:53:04;;;;;;;;;;;;;;;;;;2106959;28;20377;-44
2022/08/18 01:54:05;;;;;;;;;;;;;;;;;;2106848;28;20404;-43
2022/08/18 01:55:07;;;;;;;;;;;;;;;;;;2107243;28;19924;-45
2022/08/18 01:56:08;;;;;;;;;;;;;;;;;;2106916;28;20481;-44
2022/08/18 01:57:12;;;;;;;;;;;;;;;;;;2107023;28;20011;-44
2022/08/18 01:58:12;;;;;;;;;;;;;;;;;;2106732;28;20061;-45
2022/08/18 01:59:13;;;;;;;;;;;;;;;;;;2106938;28;20005;-44
2022/08/18 02:00:14;;;;;;;;;;;;;;;;;;2106853;28;20365;-44
2022/08/18 02:01:15;;;;;;;;;;;;;;;;;;2109329;28;19924;-44
2022/08/18 02:02:16;;;;;;;;;;;;;;;;;;2115295;28;19927;-43
2022/08/18 02:03:18;;;;;;;;;;;;;;;;;;2115303;28;19930;-44
2022/08/18 02:04:19;;;;;;;;;;;;;;;;;;2115256;28;20010;-44
2022/08/18 02:05:37;;;;;;;;;;;;;;;;;;2115241;28;19930;-44
2022/08/18 02:06:38;;;;;;;;;;;;;;;;;;2115156;28;20300;-45
2022/08/18 02:07:39;;;;;;;;;;;;;;;;;;2115148;28;19924;-44
2022/08/18 02:08:40;;;;;;;;;;;;;;;;;;2115295;28;19972;-44
2022/08/18 02:09:42;;;;;;;;;;;;;;;;;;2115126;28;19924;-45
2022/08/18 02:10:43;;;;;;;;;;;;;;;;;;2115291;28;19924;-44
2022/08/18 02:11:44;;;;;;;;;;;;;;;;;;2108549;28;19924;-46
2022/08/18 02:12:45;;;;;;;;;;;;;;;;;;2107007;28;20019;-47
2022/08/18 02:13:46;;;;;;;;;;;;;;;;;;2106806;28;19924;-45
2022/08/18 02:14:46;;;;;;;;;;;;;;;;;;2106757;28;19931;-44
2022/08/18 02:15:47;;;;;;;;;;;;;;;;;;2106887;28;19924;-45
2022/08/18 02:16:48;;;;;;;;;;;;;;;;;;2106546;28;19977;-44
2022/08/18 02:17:49;;;;;;;;;;;;;;;;;;2106816;28;19959;-44
2022/08/18 02:18:50;;;;;;;;;;;;;;;;;;2106786;28;19932;-44
2022/08/18 02:19:52;;;;;;;;;;;;;;;;;;2106849;28;19928;-44
2022/08/18 02:20:52;;;;;;;;;;;;;;;;;;2106737;28;20027;-44
2022/08/18 02:21:53;;;;;;;;;;;;;;;;;;2106790;28;20408;-46
2022/08/18 02:22:54;;;;;;;;;;;;;;;;;;2106763;28;20355;-44
2022/08/18 02:23:55;;;;;;;;;;;;;;;;;;2106669;28;19964;-45
2022/08/18 02:24:56;;;;;;;;;;;;;;;;;;2106662;28;19924;-44
2022/08/18 02:25:57;;;;;;;;;;;;;;;;;;2106776;28;20388;-44
2022/08/18 02:26:58;;;;;;;;;;;;;;;;;;2106600;28;20010;-45
2022/08/18 02:27:59;;;;;;;;;;;;;;;;;;2106641;28;19979;-44
2022/08/18 02:28:59;;;;;;;;;;;;;;;;;;2106624;28;19967;-44
2022/08/18 02:30:00;;;;;;;;;;;;;;;;;;2106559;28;19924;-45
2022/08/18 02:31:01;;;;;;;;;;;;;;;;;;2106667;28;20038;-45
2022/08/18 02:32:02;;;;;;;;;;;;;;;;;;2106546;28;19924;-44
2022/08/18 02:33:03;;;;;;;;;;;;;;;;;;2106651;28;20006;-45
2022/08/18 02:34:04;;;;;;;;;;;;;;;;;;2106583;28;19931;-45
2022/08/18 02:35:05;;;;;;;;;;;;;;;;;;2106703;28;19924;-44
2022/08/18 02:36:06;;;;;;;;;;;;;;;;;;2106702;28;19924;-46
2022/08/18 02:37:07;;;;;;;;;;;;;;;;;;2106578;28;19924;-45
2022/08/18 02:38:12;;;;;;;;;;;;;;;;;;2106680;28;19924;-44
2022/08/18 02:39:13;;;;;;;;;;;;;;;;;;2106623;28;20019;-45
2022/08/18 02:40:14;;;;;;;;;;;;;;;;;;2106638;28;19955;-44
2022/08/18 02:41:15;;;;;;;;;;;;;;;;;;2106371;28;19973;-44
2022/08/18 02:42:16;;;;;;;;;;;;;;;;;;2106658;28;20384;-44
2022/08/18 02:43:17;;;;;;;;;;;;;;;;;;2106526;28;19925;-45
2022/08/18 02:44:18;;;;;;;;;;;;;;;;;;2106427;28;19928;-44
2022/08/18 02:45:19;;;;;;;;;;;;;;;;;;2106716;28;20373;-44
2022/08/18 02:46:20;;;;;;;;;;;;;;;;;;2106528;28;19962;-44
2022/08/18 02:47:21;;;;;;;;;;;;;;;;;;2106584;28;19930;-44
2022/08/18 02:48:23;;;;;;;;;;;;;;;;;;2106668;28;19951;-44
2022/08/18 02:49:24;;;;;;;;;;;;;;;;;;2106626;28;20007;-45
2022/08/18 02:50:25;;;;;;;;;;;;;;;;;;2106456;28;19924;-44
2022/08/18 02:51:26;;;;;;;;;;;;;;;;;;2106431;28;20384;-44
2022/08/18 02:52:31;;;;;;;;;;;;;;;;;;2106550;28;19924;-44
2022/08/18 02:53:32;;;;;;;;;;;;;;;;;;2106799;28;20215;-46
2022/08/18 02:54:34;;;;;;;;;;;;;;;;;;2106552;28;20327;-44
2022/08/18 02:55:34;;;;;;;;;;;;;;;;;;2106627;28;19959;-45
2022/08/18 02:56:35;;;;;;;;;;;;;;;;;;2106433;28;19972;-44
2022/08/18 02:57:42;;;;;;;;;;;;;;;;;;2114272;28;20077;-44
2022/08/18 02:58:43;;;;;;;;;;;;;;;;;;2114691;28;19967;-44
2022/08/18 02:59:44;;;;;;;;;;;;;;;;;;2114709;28;20018;-46
2022/08/18 03:00:47;;;;;;;;;;;;;;;;;;2115062;28;20014;-45
2022/08/18 03:01:49;;;;;;;;;;;;;;;;;;2115056;28;20002;-45
2022/08/18 03:02:50;;;;;;;;;;;;;;;;;;2114400;28;19928;-46
2022/08/18 03:03:51;;;;;;;;;;;;;;;;;;2114580;28;20014;-44
2022/08/18 03:04:52;;;;;;;;;;;;;;;;;;2114830;28;19931;-45
2022/08/18 03:05:53;;;;;;;;;;;;;;;;;;2114747;28;19924;-45
2022/08/18 03:06:55;;;;;;;;;;;;;;;;;;2114889;28;19924;-46
2022/08/18 03:07:56;;;;;;;;;;;;;;;;;;2115123;28;20007;-45
2022/08/18 03:08:57;;;;;;;;;;;;;;;;;;2115144;28;20063;-46
2022/08/18 03:09:58;;;;;;;;;;;;;;;;;;2114895;28;20082;-46
2022/08/18 03:11:02;;;;;;;;;;;;;;;;;;2114276;28;19927;-46
2022/08/18 03:12:03;;;;;;;;;;;;;;;;;;2106373;28;19924;-46
2022/08/18 03:13:03;;;;;;;;;;;;;;;;;;2106325;28;19924;-46
2022/08/18 03:14:04;;;;;;;;;;;;;;;;;;2106368;28;19924;-46
2022/08/18 03:15:05;;;;;;;;;;;;;;;;;;2106415;28;20348;-46
2022/08/18 03:16:06;;;;;;;;;;;;;;;;;;2106477;28;19930;-45
2022/08/18 03:17:07;;;;;;;;;;;;;;;;;;2106235;28;20377;-45
2022/08/18 03:18:08;;;;;;;;;;;;;;;;;;2106269;28;19976;-45
2022/08/18 03:19:09;;;;;;;;;;;;;;;;;;2106299;28;20027;-46
2022/08/18 03:20:10;;;;;;;;;;;;;;;;;;2106468;28;19948;-46
2022/08/18 03:21:10;;;;;;;;;;;;;;;;;;2106356;28;20007;-45
2022/08/18 03:22:13;;;;;;;;;;;;;;;;;;2106272;28;19971;-46
2022/08/18 03:23:28;;;;;;;;;;;;;;;;;;2106319;28;20602;-47
2022/08/18 03:24:30;;;;;;;;;;;;;;;;;;2106489;28;19924;-46
2022/08/18 03:25:31;;;;;;;;;;;;;;;;;;2106310;28;19967;-46
2022/08/18 03:26:32;;;;;;;;;;;;;;;;;;2106199;28;19924;-46
2022/08/18 03:27:33;;;;;;;;;;;;;;;;;;2106572;28;19928;-46
2022/08/18 03:28:34;;;;;;;;;;;;;;;;;;2106476;28;20381;-46
2022/08/18 03:29:34;;;;;;;;;;;;;;;;;;2106472;28;19939;-45
2022/08/18 03:30:36;;;;;;;;;;;;;;;;;;2106178;28;20354;-46
2022/08/18 03:31:37;;;;;;;;;;;;;;;;;;2106381;28;20062;-45
2022/08/18 03:32:38;;;;;;;;;;;;;;;;;;2106279;28;20201;-48
2022/08/18 03:33:40;;;;;;;;;;;;;;;;;;2106441;28;20015;-47
2022/08/18 03:34:42;;;;;;;;;;;;;;;;;;2106205;28;20491;-46
2022/08/18 03:35:43;;;;;;;;;;;;;;;;;;2106417;28;20015;-46
2022/08/18 03:36:44;;;;;;;;;;;;;;;;;;2106385;28;19963;-46
2022/08/18 03:37:45;;;;;;;;;;;;;;;;;;2106194;28;20048;-45
2022/08/18 03:38:46;;;;;;;;;;;;;;;;;;2106239;28;19928;-46
2022/08/18 03:39:50;;;;;;;;;;;;;;;;;;2106316;28;19924;-45
2022/08/18 03:40:51;;;;;;;;;;;;;;;;;;2106205;28;20332;-46
2022/08/18 03:41:53;;;;;;;;;;;;;;;;;;2106289;28;20011;-47
2022/08/18 03:43:00;;;;;;;;;;;;;;;;;;2106349;28;19923;-46
2022/08/18 03:44:02;;;;;;;;;;;;;;;;;;2106137;28;19927;-46
2022/08/18 03:45:03;;;;;;;;;;;;;;;;;;2106224;28;20361;-45
2022/08/18 03:46:13;;;;;;;;;;;;;;;;;;2106093;28;19928;-46
2022/08/18 03:47:14;;;;;;;;;;;;;;;;;;2106290;28;19924;-46
2022/08/18 03:48:15;;;;;;;;;;;;;;;;;;2106265;28;19967;-46
2022/08/18 03:49:16;;;;;;;;;;;;;;;;;;2106306;28;19973;-46
2022/08/18 03:50:18;;;;;;;;;;;;;;;;;;2106083;28;20061;-47
2022/08/18 03:51:20;;;;;;;;;;;;;;;;;;2105963;28;20015;-46
2022/08/18 03:52:22;;;;;;;;;;;;;;;;;;2106480;28;20010;-48
2022/08/18 03:53:23;;;;;;;;;;;;;;;;;;2106066;28;20022;-47
2022/08/18 03:54:24;;;;;;;;;;;;;;;;;;2114292;28;19924;-48
2022/08/18 03:55:26;;;;;;;;;;;;;;;;;;2114531;28;20022;-47
2022/08/18 03:56:27;;;;;;;;;;;;;;;;;;2114438;28;20003;-46
2022/08/18 03:57:32;;;;;;;;;;;;;;;;;;2114493;28;20461;-45
2022/08/18 03:58:32;;;;;;;;;;;;;;;;;;2114497;28;20062;-46
2022/08/18 03:59:33;;;;;;;;;;;;;;;;;;2114510;28;19977;-46
2022/08/18 04:00:34;;;;;;;;;;;;;;;;;;2114532;28;19928;-45
2022/08/18 04:01:37;;;;;;;;;;;;;;;;;;2114603;28;19923;-46
2022/08/18 04:02:38;;;;;;;;;;;;;;;;;;2114561;28;19931;-46
2022/08/18 04:03:39;;;;;;;;;;;;;;;;;;2114409;28;19923;-46
2022/08/18 04:04:40;;;;;;;;;;;;;;;;;;2114487;28;19924;-45
2022/08/18 04:05:43;;;;;;;;;;;;;;;;;;2114438;28;19963;-46
2022/08/18 04:06:44;;;;;;;;;;;;;;;;;;2114451;28;20439;-46
2022/08/18 04:07:45;;;;;;;;;;;;;;;;;;2114889;28;20019;-45
2022/08/18 04:08:46;;;;;;;;;;;;;;;;;;2115059;28;19924;-45
2022/08/18 04:09:47;;;;;;;;;;;;;;;;;;2114389;28;20011;-45
2022/08/18 04:10:48;;;;;;;;;;;;;;;;;;2115067;28;20006;-46
2022/08/18 04:11:49;;;;;;;;;;;;;;;;;;2107336;28;20353;-45
2022/08/18 04:12:50;;;;;;;;;;;;;;;;;;2105959;28;20359;-45
2022/08/18 04:13:51;;;;;;;;;;;;;;;;;;2106012;28;19928;-45
2022/08/18 04:14:52;;;;;;;;;;;;;;;;;;2107533;28;19928;-45
2022/08/18 04:15:53;;;;;;;;;;;;;;;;;;2107367;28;19931;-45
2022/08/18 04:16:54;;;;;;;;;;;;;;;;;;2107398;28;20425;-46
2022/08/18 04:17:55;;;;;;;;;;;;;;;;;;2107419;28;20053;-45
2022/08/18 04:19:04;;;;;;;;;;;;;;;;;;2107814;28;19924;-45
2022/08/18 04:20:04;;;;;;;;;;;;;;;;;;2107370;28;20296;-46
2022/08/18 04:21:06;;;;;;;;;;;;;;;;;;2107599;28;19924;-44
2022/08/18 04:22:07;;;;;;;;;;;;;;;;;;2107408;28;19951;-46
2022/08/18 04:23:08;;;;;;;;;;;;;;;;;;2107441;28;20284;-47
2022/08/18 04:24:09;;;;;;;;;;;;;;;;;;2107559;28;19931;-45
2022/08/18 04:25:10;;;;;;;;;;;;;;;;;;2107607;28;19986;-46
2022/08/18 04:26:11;;;;;;;;;;;;;;;;;;2107517;28;19924;-46
2022/08/18 04:27:19;;;;;;;;;;;;;;;;;;2107495;28;19964;-44
2022/08/18 04:28:20;;;;;;;;;;;;;;;;;;2107593;28;19977;-46
2022/08/18 04:29:21;;;;;;;;;;;;;;;;;;2107441;28;20305;-45
2022/08/18 04:30:22;;;;;;;;;;;;;;;;;;2107460;28;20410;-45
2022/08/18 04:31:25;;;;;;;;;;;;;;;;;;2107366;28;19963;-47
2022/08/18 04:32:26;;;;;;;;;;;;;;;;;;2107760;28;20026;-49
2022/08/18 04:33:30;;;;;;;;;;;;;;;;;;2108137;28;19924;-47
2022/08/18 04:34:31;;;;;;;;;;;;;;;;;;2107474;28;19990;-48
2022/08/18 04:35:32;;;;;;;;;;;;;;;;;;2107624;28;20015;-46
2022/08/18 04:36:33;;;;;;;;;;;;;;;;;;2107521;28;19931;-48
2022/08/18 04:37:35;;;;;;;;;;;;;;;;;;2107248;28;19927;-48
2022/08/18 04:38:38;;;;;;;;;;;;;;;;;;2107329;28;19931;-45
2022/08/18 04:39:39;;;;;;;;;;;;;;;;;;2107301;28;20010;-46
2022/08/18 04:40:40;;;;;;;;;;;;;;;;;;2107358;28;19931;-45
2022/08/18 04:41:42;;;;;;;;;;;;;;;;;;2107581;28;20041;-46
2022/08/18 04:42:43;;;;;;;;;;;;;;;;;;2107563;28;20403;-46
2022/08/18 04:43:45;;;;;;;;;;;;;;;;;;2107294;28;20018;-46
2022/08/18 04:44:46;;;;;;;;;;;;;;;;;;2107445;28;20027;-47
2022/08/18 04:45:47;;;;;;;;;;;;;;;;;;2107626;28;19924;-48
2022/08/18 04:46:47;;;;;;;;;;;;;;;;;;2107281;28;19971;-50
2022/08/18 04:47:49;;;;;;;;;;;;;;;;;;2107632;28;20262;-44
2022/08/18 04:48:51;;;;;;;;;;;;;;;;;;2107251;28;20304;-45
2022/08/18 04:49:52;;;;;;;;;;;;;;;;;;2108848;28;20023;-46
2022/08/18 04:50:52;;;;;;;;;;;;;;;;;;2115820;28;19924;-47
2022/08/18 04:54:54;;;;;;;;;;;;;;;;;;2110605;28;20368;-46
2022/08/18 04:55:55;;;;;;;;;;;;;;;;;;2115590;28;19924;-45
2022/08/18 04:56:56;;;;;;;;;;;;;;;;;;2115715;28;20310;-45
2022/08/18 04:57:58;;;;;;;;;;;;;;;;;;2115658;28;19954;-47
2022/08/18 04:58:59;;;;;;;;;;;;;;;;;;2115932;28;20060;-46
2022/08/18 04:59:59;;;;;;;;;;;;;;;;;;2115883;28;20014;-45
2022/08/18 05:01:00;;;;;;;;;;;;;;;;;;2115661;28;19928;-46
2022/08/18 05:02:07;;;;;;;;;;;;;;;;;;2115689;28;19927;-45
2022/08/18 05:03:11;;;;;;;;;;;;;;;;;;2115598;28;20334;-45
2022/08/18 05:04:13;;;;;;;;;;;;;;;;;;2115797;28;20455;-46
2022/08/18 05:05:13;;;;;;;;;;;;;;;;;;2116037;28;19973;-46
2022/08/18 05:06:14;;;;;;;;;;;;;;;;;;2115801;28;19924;-46
2022/08/18 05:07:15;;;;;;;;;;;;;;;;;;2115600;28;20010;-47
2022/08/18 05:08:16;;;;;;;;;;;;;;;;;;2115898;28;20270;-48
2022/08/18 05:09:17;;;;;;;;;;;;;;;;;;2115823;28;20110;-45
2022/08/18 05:10:23;;;;;;;;;;;;;;;;;;2115619;28;19934;-44
2022/08/18 05:11:24;;;;;;;;;;;;;;;;;;2111915;28;20344;-48
2022/08/18 05:12:25;;;;;;;;;;;;;;;;;;2107116;28;19924;-48
2022/08/18 05:13:27;;;;;;;;;;;;;;;;;;2107137;28;20019;-47
2022/08/18 05:14:28;;;;;;;;;;;;;;;;;;2107142;28;19942;-47
2022/08/18 05:15:28;;;;;;;;;;;;;;;;;;2107104;28;19977;-47
2022/08/18 05:16:42;;;;;;;;;;;;;;;;;;2106912;28;19928;-47
2022/08/18 05:17:49;;;;;;;;;;;;;;;;;;2107139;28;20293;-47
2022/08/18 05:18:52;;;;;;;;;;;;;;;;;;2107341;28;19928;-46
2022/08/18 05:19:53;;;;;;;;;;;;;;;;;;2107430;28;19978;-46
2022/08/18 05:20:54;;;;;;;;;;;;;;;;;;2107425;28;20431;-48
2022/08/18 05:21:56;;;;;;;;;;;;;;;;;;2107143;28;19940;-46
2022/08/18 05:23:00;;;;;;;;;;;;;;;;;;2107335;28;20133;-45
2022/08/18 05:24:01;;;;;;;;;;;;;;;;;;2107009;28;19993;-46
2022/08/18 05:25:02;;;;;;;;;;;;;;;;;;2107162;28;20396;-45
2022/08/18 05:26:03;;;;;;;;;;;;;;;;;;2106391;28;20019;-45
2022/08/18 05:27:04;;;;;;;;;;;;;;;;;;2107109;28;20358;-45
2022/08/18 05:28:05;;;;;;;;;;;;;;;;;;2107233;28;19924;-49
2022/08/18 05:29:06;;;;;;;;;;;;;;;;;;2107358;28;20010;-49
2022/08/18 05:30:20;;;;;;;;;;;;;;;;;;2107616;28;19954;-47
2022/08/18 05:31:21;;;;;;;;;;;;;;;;;;2107014;28;19951;-47
2022/08/18 05:32:22;;;;;;;;;;;;;;;;;;2107219;28;20114;-48
2022/08/18 05:33:30;;;;;;;;;;;;;;;;;;2107215;28;19924;-48
2022/08/18 05:34:31;;;;;;;;;;;;;;;;;;2106898;28;20240;-47
2022/08/18 05:35:32;;;;;;;;;;;;;;;;;;2106964;28;19963;-47
2022/08/18 05:36:33;;;;;;;;;;;;;;;;;;2107102;28;20381;-47
2022/08/18 05:37:34;;;;;;;;;;;;;;;;;;2107174;28;20381;-46
2022/08/18 05:38:36;;;;;;;;;;;;;;;;;;2107345;28;19928;-45
2022/08/18 05:39:37;;;;;;;;;;;;;;;;;;2107048;28;20003;-45
2022/08/18 05:40:38;;;;;;;;;;;;;;;;;;2106987;28;19939;-45
2022/08/18 05:41:38;;;;;;;;;;;;;;;;;;2107184;28;19999;-44
2022/08/18 05:42:40;;;;;;;;;;;;;;;;;;2107146;28;19946;-49
2022/08/18 05:43:40;;;;;;;;;;;;;;;;;;2106905;28;20019;-47
2022/08/18 05:44:53;;;;;;;;;;;;;;;;;;2107223;28;19928;-46
2022/08/18 05:45:55;;;;;;;;;;;;;;;;;;2106886;28;20030;-45
2022/08/18 05:46:57;;;;;;;;;;;;;;;;;;2107085;28;19947;-47
2022/08/18 05:47:58;;;;;;;;;;;;;;;;;;2111503;28;20007;-50
2022/08/18 05:48:59;;;;;;;;;;;;;;;;;;2115961;28;20401;-45
2022/08/18 05:50:00;;;;;;;;;;;;;;;;;;2115297;28;19924;-45
2022/08/18 05:51:01;;;;;;;;;;;;;;;;;;2116192;28;19928;-45
2022/08/18 05:52:02;;;;;;;;;;;;;;;;;;2115879;28;19971;-47
2022/08/18 05:53:03;;;;;;;;;;;;;;;;;;2115368;28;19923;-50
2022/08/18 05:56:47;;;;;;;;;;;;;;;;;;2115261;28;19923;-47
2022/08/18 05:57:50;;;;;;;;;;;;;;;;;;2115349;28;19924;-47
2022/08/18 05:58:51;;;;;;;;;;;;;;;;;;2115270;28;20011;-48
2022/08/18 05:59:52;;;;;;;;;;;;;;;;;;2115281;28;19927;-49
2022/08/18 06:00:52;;;;;;;;;;;;;;;;;;2115766;28;20043;-46
2022/08/18 06:01:58;;;;;;;;;;;;;;;;;;2115709;28;19923;-45
2022/08/18 06:03:00;;;;;;;;;;;;;;;;;;2115159;28;19934;-46
2022/08/18 06:04:00;;;;;;;;;;;;;;;;;;2115261;28;19931;-45
2022/08/18 06:05:01;;;;;;;;;;;;;;;;;;2115240;28;19924;-46
2022/08/18 06:06:02;;;;;;;;;;;;;;;;;;2115334;28;19935;-48
2022/08/18 06:07:04;;;;;;;;;;;;;;;;;;2115447;28;19931;-48
2022/08/18 06:08:05;;;;;;;;;;;;;;;;;;2115268;28;20019;-48
2022/08/18 06:09:06;;;;;;;;;;;;;;;;;;2115478;28;19997;-45
2022/08/18 06:10:07;;;;;;;;;;;;;;;;;;2115332;28;20263;-45
2022/08/18 06:11:08;;;;;;;;;;;;;;;;;;2113896;28;20023;-45
2022/08/18 06:12:22;;;;;;;;;;;;;;;;;;2106920;28;20010;-45
2022/08/18 06:13:23;;;;;;;;;;;;;;;;;;2107046;28;19924;-44
2022/08/18 06:14:24;;;;;;;;;;;;;;;;;;2106743;28;20327;-45
2022/08/18 06:15:25;;;;;;;;;;;;;;;;;;2106661;28;20019;-45
2022/08/18 06:16:26;;;;;;;;;;;;;;;;;;2107894;28;20015;-45
2022/08/18 06:17:27;;;;;;;;;;;;;;;;;;2107035;28;19924;-45
2022/08/18 06:18:27;;;;;;;;;;;;;;;;;;2106847;28;19923;-44
2022/08/18 06:19:28;;;;;;;;;;;;;;;;;;2106719;28;19931;-44
2022/08/18 06:20:29;;;;;;;;;;;;;;;;;;2106795;28;19950;-45
2022/08/18 06:21:30;;;;;;;;;;;;;;;;;;2106893;28;19967;-45
2022/08/18 06:22:36;;;;;;;;;;;;;;;;;;2106702;28;20015;-45
2022/08/18 06:23:36;;;;;;;;;;;;;;;;;;2106646;28;20502;-44
2022/08/18 06:24:37;;;;;;;;;;;;;;;;;;2107599;28;20004;-47
2022/08/18 06:25:39;;;;;;;;;;;;;;;;;;2107618;28;19928;-48
2022/08/18 06:26:40;;;;;;;;;;;;;;;;;;2107124;28;20444;-48
2022/08/18 06:27:41;;;;;;;;;;;;;;;;;;2106924;28;20024;-51
2022/08/18 06:28:42;;;;;;;;;;;;;;;;;;2107299;28;20320;-50
2022/08/18 06:29:46;;;;;;;;;;;;;;;;;;2106788;28;20007;-46
2022/08/18 06:30:48;;;;;;;;;;;;;;;;;;2106731;28;20010;-46
2022/08/18 06:31:49;;;;;;;;;;;;;;;;;;2106912;28;19924;-48
2022/08/18 06:32:51;;;;;;;;;;;;;;;;;;2106691;28;20381;-51
2022/08/18 06:33:52;;;;;;;;;;;;;;;;;;2106751;28;19963;-48
2022/08/18 06:34:54;;;;;;;;;;;;;;;;;;2107178;28;20030;-45
2022/08/18 06:35:55;;;;;;;;;;;;;;;;;;2107072;28;19977;-45
2022/08/18 06:36:56;;;;;;;;;;;;;;;;;;2106632;28;19967;-44
2022/08/18 06:39:16;;;;;;;;;;;;;;;;;;2106722;28;20358;-49
2022/08/18 06:40:17;;;;;;;;;;;;;;;;;;2107174;28;19997;-45
2022/08/18 06:41:18;;;;;;;;;;;;;;;;;;2106686;28;19971;-45
2022/08/18 06:42:38;;;;;;;;;;;;;;;;;;2110259;28;20369;-50
2022/08/18 06:43:40;;;;;;;;;;;;;;;;;;2115287;28;19992;-45
2022/08/18 06:44:42;;;;;;;;;;;;;;;;;;2115539;28;20368;-45
2022/08/18 06:45:44;;;;;;;;;;;;;;;;;;2115053;28;20015;-49
2022/08/18 06:46:45;;;;;;;;;;;;;;;;;;2115493;28;19989;-48
2022/08/18 06:47:46;;;;;;;;;;;;;;;;;;2115248;28;19953;-47
2022/08/18 06:48:47;;;;;;;;;;;;;;;;;;2114809;28;19924;-48
2022/08/18 06:49:48;;;;;;;;;;;;;;;;;;2115342;28;19923;-48
2022/08/18 06:50:48;;;;;;;;;;;;;;;;;;2115433;28;19924;-49
2022/08/18 06:51:50;;;;;;;;;;;;;;;;;;2115496;28;19931;-47
2022/08/18 06:52:50;;;;;;;;;;;;;;;;;;2114993;28;19986;-50
2022/08/18 06:53:51;;;;;;;;;;;;;;;;;;2114889;28;19924;-48
2022/08/18 06:54:52;;;;;;;;;;;;;;;;;;2115143;28;19935;-45
2022/08/18 06:55:53;;;;;;;;;;;;;;;;;;2114953;28;19928;-48
2022/08/18 06:56:54;;;;;;;;;;;;;;;;;;2114897;28;19923;-49
2022/08/18 06:57:56;;;;;;;;;;;;;;;;;;2115086;28;20086;-48
2022/08/18 06:58:57;;;;;;;;;;;;;;;;;;2114932;28;20017;-44
2022/08/18 06:59:59;;;;;;;;;;;;;;;;;;2114852;28;20060;-44
2022/08/18 07:01:00;;;;;;;;;;;;;;;;;;2115462;28;20125;-44
2022/08/18 07:02:01;;;;;;;;;;;;;;;;;;2115223;28;19930;-45
2022/08/18 07:03:02;;;;;;;;;;;;;;;;;;2115149;28;20288;-48
2022/08/18 07:04:02;;;;;;;;;;;;;;;;;;2115223;28;20018;-49
2022/08/18 07:05:04;;;;;;;;;;;;;;;;;;2115270;28;19923;-49
2022/08/18 07:06:05;;;;;;;;;;;;;;;;;;2114966;28;20056;-45
2022/08/18 07:07:06;;;;;;;;;;;;;;;;;;2114792;28;19972;-45
2022/08/18 07:08:09;;;;;;;;;;;;;;;;;;2115268;28;19924;-45
2022/08/18 07:09:09;;;;;;;;;;;;;;;;;;2114839;28;19970;-45
2022/08/18 07:10:10;;;;;;;;;;;;;;;;;;2115125;28;19931;-45
2022/08/18 07:11:11;;;;;;;;;;;;;;;;;;2113361;28;19924;-49
2022/08/18 07:12:12;;;;;;;;;;;;;;;;;;2106469;28;19928;-48
2022/08/18 07:13:13;;;;;;;;;;;;;;;;;;2106692;28;20381;-51
2022/08/18 07:14:14;;;;;;;;;;;;;;;;;;2107244;28;19924;-46
2022/08/18 07:15:17;;;;;;;;;;;;;;;;;;2106638;28;19931;-50
2022/08/18 07:16:18;;;;;;;;;;;;;;;;;;2106667;28;20165;-45